Terminal Aerodrome Forecast
Issued by NWS Wilmington, OH

Current Version | Previous Version | Text Only | Print | Product List | Glossary Off
Versions: 1 2 3 4 5 6 7 8 9 10 11 12 13 14 15 16 17 18 19 20

000
FTUS41 KILN 251025 AAB
TAFCMH
TAF AMD
KCMH 251025Z 2510/2606 30012KT P6SM OVC050
     FM251400 26017G27KT P6SM OVC025
     FM252100 26017G27KT P6SM OVC035
     FM260100 28012G20KT P6SM BKN040=

USA.gov is the U.S. government's official web portal to all federal, state and local government web resources and services.